Pushkinskiye Gory, Russia
Current Conditions -  °F | °C
As of 12:00 AM on Saturday 25 Oct 2014 (Local Time) from ULOO Reporting Station
Clear Clear  
Wind Chill: 15°   Ceiling: Unl
Heat Index: 23°   Visibility: 4mi
Dew Point: 18°   Wind: 7mph
Humidity: 80%   Direction: 130°SE
Pressure: 30.56"   Gusts: NA
Location:  57.02°N, 28.93°E
Report Text: ULOO 242100Z 13003MPS P6000 NSC M05/M08 Q1035 19090070 NOSIGRMK QFE772
Loading
Personal Weather Stations






























Interactive Weather Map
Tropical Storm Tracking
New forecast layout! Learn more

10-Day Weather Forecast

Advertisements
Track Severe Weather on mobile